createdAt,value
2023-01-19T00:00:54.983Z,65.40
2023-01-19T00:03:22.219Z,66.18
2023-01-19T00:05:49.358Z,65.85
2023-01-19T00:08:17.028Z,66.30
2023-01-19T00:10:47.128Z,66.75
2023-01-19T00:13:15.729Z,66.67
2023-01-19T00:15:43.688Z,67.07
2023-01-19T00:18:11.122Z,66.96
2023-01-19T00:20:42.009Z,66.95
2023-01-19T00:23:09.633Z,67.24
2023-01-19T00:25:42.763Z,67.37
2023-01-19T00:28:15.444Z,67.54
2023-01-19T00:30:43.615Z,67.81
2023-01-19T00:33:13.906Z,67.89
2023-01-19T00:35:42.785Z,67.69
2023-01-19T00:38:11.009Z,67.22
2023-01-19T00:40:38.307Z,66.51
2023-01-19T00:43:05.385Z,65.80
2023-01-19T00:45:34.044Z,65.83
2023-01-19T00:48:01.440Z,65.72
2023-01-19T00:50:30.030Z,65.93
2023-01-19T00:52:58.281Z,65.89
2023-01-19T00:55:25.578Z,65.89
2023-01-19T00:57:52.592Z,66.17
2023-01-19T01:00:21.025Z,66.21
2023-01-19T01:02:49.727Z,66.39
2023-01-19T01:05:17.171Z,66.24
2023-01-19T01:07:49.591Z,66.25
2023-01-19T01:10:23.042Z,66.41
2023-01-19T01:13:20.345Z,66.54
2023-01-19T01:15:37.776Z,66.49
2023-01-19T01:18:04.889Z,66.57
2023-01-19T01:20:33.850Z,66.72
2023-01-19T01:23:01.878Z,66.56
2023-01-19T01:25:31.220Z,66.25
2023-01-19T01:27:58.293Z,66.38
2023-01-19T01:30:25.327Z,65.86
2023-01-19T01:32:52.502Z,65.62
2023-01-19T01:35:19.585Z,65.71
2023-01-19T01:37:46.633Z,65.76
2023-01-19T01:40:16.761Z,65.75
2023-01-19T01:42:45.591Z,65.79
2023-01-19T01:45:32.942Z,65.83
2023-01-19T01:48:10.163Z,65.57
2023-01-19T01:51:03.394Z,65.62
2023-01-19T01:53:33.797Z,65.75
2023-01-19T01:56:03.000Z,65.54
2023-01-19T01:58:31.729Z,65.07
2023-01-19T02:01:17.288Z,64.43
2023-01-19T02:03:44.563Z,63.84
2023-01-19T02:06:13.798Z,62.81
2023-01-19T02:09:17.486Z,61.90
2023-01-19T02:12:03.233Z,60.89
2023-01-19T02:14:30.277Z,60.88
2023-01-19T02:16:57.426Z,59.58
2023-01-19T02:19:34.028Z,60.15
2023-01-19T02:22:06.839Z,59.92
2023-01-19T02:24:34.203Z,60.42
2023-01-19T02:27:01.883Z,60.52
2023-01-19T02:29:28.978Z,60.73
2023-01-19T02:31:57.431Z,61.06
2023-01-19T02:34:24.458Z,61.35
2023-01-19T02:36:54.569Z,61.61
2023-01-19T02:39:45.551Z,61.96
2023-01-19T02:42:24.158Z,61.99
2023-01-19T02:44:53.805Z,62.31
2023-01-19T02:47:20.953Z,62.33
2023-01-19T02:50:00.945Z,62.68
2023-01-19T02:52:28.575Z,62.80
2023-01-19T02:55:19.511Z,62.66
2023-01-19T02:57:55.269Z,62.65
2023-01-19T03:00:44.916Z,62.97
2023-01-19T03:03:40.748Z,62.79
2023-01-19T03:06:27.638Z,62.91
2023-01-19T03:09:23.867Z,62.96
2023-01-19T03:12:03.525Z,63.19
2023-01-19T03:14:34.247Z,63.36
2023-01-19T03:17:05.457Z,63.50
2023-01-19T03:19:37.791Z,63.79
2023-01-19T03:22:09.917Z,63.80
2023-01-19T03:24:40.730Z,64.32
2023-01-19T03:27:17.728Z,63.80
2023-01-19T03:29:52.488Z,64.04
2023-01-19T03:32:32.679Z,63.99
2023-01-19T03:35:03.431Z,64.08
2023-01-19T03:37:32.451Z,64.50
2023-01-19T03:39:59.735Z,64.48
2023-01-19T03:42:28.474Z,64.49
2023-01-19T03:44:57.464Z,64.82
2023-01-19T03:47:25.771Z,64.45
2023-01-19T03:49:53.738Z,64.56
2023-01-19T03:52:33.363Z,64.50
2023-01-19T03:55:02.394Z,64.67
2023-01-19T03:57:29.631Z,64.41
2023-01-19T03:59:57.165Z,64.24
2023-01-19T04:02:24.952Z,64.48
2023-01-19T04:04:52.107Z,64.32
2023-01-19T04:07:19.186Z,64.31
2023-01-19T04:09:46.358Z,64.51
2023-01-19T04:12:13.343Z,64.41
2023-01-19T04:14:40.377Z,64.41
2023-01-19T04:17:07.297Z,64.36
2023-01-19T04:19:34.521Z,64.08
2023-01-19T04:22:02.126Z,64.20
2023-01-19T04:24:29.213Z,64.51
2023-01-19T04:26:56.190Z,64.44
2023-01-19T04:29:24.568Z,64.94
2023-01-19T04:31:51.556Z,64.95
2023-01-19T04:34:18.676Z,65.16
2023-01-19T04:36:46.845Z,64.78
2023-01-19T04:39:13.916Z,64.70
2023-01-19T04:41:40.910Z,65.08
2023-01-19T04:44:07.970Z,65.04
2023-01-19T04:46:35.213Z,65.16
2023-01-19T04:49:02.299Z,65.25
2023-01-19T04:51:29.734Z,65.56
2023-01-19T04:53:57.899Z,65.65
2023-01-19T04:56:24.969Z,65.85
2023-01-19T04:58:52.121Z,66.33
2023-01-19T05:01:19.193Z,66.45
2023-01-19T05:03:46.782Z,66.67
2023-01-19T05:06:13.882Z,66.70
2023-01-19T05:08:40.920Z,66.80
2023-01-19T05:11:08.096Z,66.82
2023-01-19T05:13:35.093Z,66.71
2023-01-19T05:16:02.632Z,67.07
2023-01-19T05:18:36.061Z,66.56
2023-01-19T05:21:03.724Z,66.69
2023-01-19T05:23:32.844Z,66.54
2023-01-19T05:26:02.141Z,66.68
2023-01-19T05:28:30.967Z,66.91
2023-01-19T05:30:58.244Z,66.90
2023-01-19T05:33:26.429Z,67.07
2023-01-19T05:35:54.578Z,67.09
2023-01-19T05:38:34.325Z,67.20
2023-01-19T05:41:02.663Z,67.31
2023-01-19T05:43:29.673Z,67.70
2023-01-19T05:45:56.703Z,67.62
2023-01-19T05:48:23.933Z,67.91
2023-01-19T05:50:50.951Z,68.08
2023-01-19T05:53:18.057Z,68.27
2023-01-19T05:55:45.157Z,68.35
2023-01-19T05:58:12.228Z,68.82
2023-01-19T06:00:39.293Z,68.74
2023-01-19T06:03:06.767Z,68.74
2023-01-19T06:05:34.175Z,69.05
2023-01-19T06:08:02.564Z,69.37
2023-01-19T06:10:29.747Z,69.21
2023-01-19T06:12:57.261Z,69.36
2023-01-19T06:15:24.324Z,69.72
2023-01-19T06:17:51.383Z,69.53
2023-01-19T06:20:18.546Z,69.43
2023-01-19T06:22:45.568Z,69.03
2023-01-19T06:25:12.667Z,69.12
2023-01-19T06:27:43.827Z,68.72
2023-01-19T06:30:11.509Z,68.51
2023-01-19T06:32:38.662Z,68.69
2023-01-19T06:35:07.989Z,68.22
2023-01-19T06:37:35.724Z,68.48
2023-01-19T06:40:03.016Z,68.50
2023-01-19T06:42:30.176Z,68.38
2023-01-19T06:44:57.156Z,67.91
2023-01-19T06:47:24.164Z,67.49
2023-01-19T06:49:51.173Z,66.98
2023-01-19T06:52:20.048Z,66.36
2023-01-19T06:54:47.629Z,66.35
2023-01-19T06:57:16.944Z,65.90
2023-01-19T06:59:44.424Z,66.15
2023-01-19T07:02:26.695Z,65.50
2023-01-19T07:04:56.716Z,65.74
2023-01-19T07:07:23.839Z,65.31
2023-01-19T07:09:51.447Z,65.23
2023-01-19T07:12:21.176Z,65.12
2023-01-19T07:14:49.652Z,64.33
2023-01-19T07:17:16.986Z,64.22
2023-01-19T07:19:44.025Z,64.04
2023-01-19T07:22:11.042Z,63.39
2023-01-19T07:24:38.405Z,63.35
2023-01-19T07:27:05.680Z,63.24
2023-01-19T07:29:32.885Z,62.77
2023-01-19T07:32:00.177Z,62.56
2023-01-19T07:34:27.279Z,62.33
2023-01-19T07:36:56.165Z,61.82
2023-01-19T07:39:23.211Z,61.60
2023-01-19T07:41:50.306Z,61.42
2023-01-19T07:44:17.305Z,61.22
2023-01-19T07:46:44.397Z,60.28
2023-01-19T07:49:11.883Z,60.40
2023-01-19T07:51:39.087Z,60.27
2023-01-19T07:54:08.703Z,60.12
2023-01-19T07:56:35.781Z,60.20
2023-01-19T07:59:02.970Z,60.27
2023-01-19T08:01:30.433Z,60.11
2023-01-19T08:03:57.652Z,60.17
2023-01-19T08:06:30.407Z,59.69
2023-01-19T08:08:57.600Z,59.77
2023-01-19T08:11:24.556Z,59.77
2023-01-19T08:13:51.905Z,59.11
2023-01-19T08:16:19.175Z,59.17
2023-01-19T08:18:49.305Z,59.14
2023-01-19T08:21:16.775Z,59.06
2023-01-19T08:23:44.546Z,59.71
2023-01-19T08:26:27.577Z,60.35
2023-01-19T08:28:55.183Z,60.25
2023-01-19T08:31:24.748Z,60.39
2023-01-19T08:33:52.572Z,60.32
2023-01-19T08:36:20.312Z,60.22
2023-01-19T08:38:47.931Z,59.64
2023-01-19T08:41:17.138Z,60.17
2023-01-19T08:43:47.733Z,59.73
2023-01-19T08:46:17.777Z,59.21
2023-01-19T08:48:51.084Z,58.12
2023-01-19T08:51:18.701Z,57.56
2023-01-19T08:53:45.745Z,57.74
2023-01-19T08:56:14.036Z,57.39
2023-01-19T08:58:43.303Z,57.49
2023-01-19T09:01:11.661Z,57.41
2023-01-19T09:03:38.806Z,57.48
2023-01-19T09:06:07.364Z,56.84
2023-01-19T09:08:34.669Z,56.08
2023-01-19T09:11:01.869Z,55.70
2023-01-19T09:13:29.213Z,55.54
2023-01-19T09:15:56.510Z,55.29
2023-01-19T09:18:23.946Z,54.87
2023-01-19T09:20:51.585Z,53.87
2023-01-19T09:23:22.811Z,53.68
2023-01-19T09:25:55.722Z,53.50
2023-01-19T09:28:22.885Z,53.22
2023-01-19T09:30:50.143Z,52.71
2023-01-19T09:33:19.674Z,52.58
2023-01-19T09:35:48.657Z,53.11
2023-01-19T09:38:16.978Z,53.04
2023-01-19T09:41:04.799Z,53.21
2023-01-19T09:43:47.614Z,52.48
2023-01-19T09:46:33.492Z,53.63
2023-01-19T09:49:07.892Z,53.56
2023-01-19T09:51:41.374Z,53.59
2023-01-19T09:54:15.938Z,53.52
2023-01-19T09:56:45.449Z,53.90
2023-01-19T09:59:20.509Z,53.88
2023-01-19T10:02:06.367Z,53.59
2023-01-19T10:04:55.247Z,53.72
2023-01-19T10:07:40.668Z,53.56
2023-01-19T10:10:19.950Z,53.74
2023-01-19T10:13:08.826Z,53.51
2023-01-19T10:16:03.215Z,53.53
2023-01-19T10:18:47.953Z,52.58
2023-01-19T10:21:26.518Z,52.43
2023-01-19T10:24:22.077Z,52.26
2023-01-19T10:26:52.673Z,53.23
2023-01-19T10:29:22.338Z,53.60
2023-01-19T10:31:52.833Z,53.79
2023-01-19T10:34:23.178Z,53.83
2023-01-19T10:37:00.595Z,53.78
2023-01-19T10:39:27.855Z,53.33
2023-01-19T10:41:59.189Z,52.86
2023-01-19T10:44:29.481Z,52.93
2023-01-19T10:47:00.004Z,52.83
2023-01-19T10:49:37.841Z,53.05
2023-01-19T10:52:19.318Z,53.34
2023-01-19T10:54:48.643Z,53.08
2023-01-19T10:57:28.170Z,53.21
2023-01-19T10:59:55.445Z,53.07
2023-01-19T11:02:29.282Z,52.88
2023-01-19T11:04:59.316Z,52.80
2023-01-19T11:07:26.494Z,52.70
2023-01-19T11:10:24.219Z,52.07
2023-01-19T11:13:01.527Z,50.47
2023-01-19T11:15:33.374Z,49.91
2023-01-19T11:18:02.485Z,49.49
2023-01-19T11:20:36.035Z,48.67
2023-01-19T11:23:15.004Z,47.59
2023-01-19T11:25:47.214Z,48.57
2023-01-19T11:28:19.533Z,49.50
2023-01-19T11:31:16.846Z,51.99
2023-01-19T11:33:52.178Z,52.21
2023-01-19T11:36:22.761Z,51.46
2023-01-19T11:38:57.109Z,51.45
2023-01-19T11:41:24.373Z,51.34
2023-01-19T11:43:58.140Z,50.69
2023-01-19T11:46:31.363Z,50.44
2023-01-19T11:49:20.259Z,49.58
2023-01-19T11:52:00.213Z,49.12
2023-01-19T11:54:33.373Z,48.93
2023-01-19T11:57:00.801Z,48.65
2023-01-19T11:59:28.687Z,48.98
2023-01-19T12:01:59.467Z,48.71
2023-01-19T12:04:40.610Z,48.59
2023-01-19T12:07:10.928Z,48.47
2023-01-19T12:09:48.985Z,48.55
2023-01-19T12:12:32.178Z,48.92
2023-01-19T12:15:10.717Z,48.56
2023-01-19T12:17:46.414Z,48.31
2023-01-19T12:20:26.886Z,48.71
2023-01-19T12:23:38.496Z,49.37
2023-01-19T12:26:17.606Z,49.39
2023-01-19T12:28:48.028Z,49.86
2023-01-19T12:31:17.867Z,50.05
2023-01-19T12:33:45.125Z,50.71
2023-01-19T12:36:41.165Z,50.92
2023-01-19T12:39:19.319Z,51.44
2023-01-19T12:41:47.439Z,51.74
2023-01-19T12:44:19.950Z,51.54
2023-01-19T12:47:03.659Z,51.73
2023-01-19T12:49:39.912Z,50.87
2023-01-19T12:52:28.844Z,50.89
2023-01-19T12:55:13.227Z,50.22
2023-01-19T12:57:59.008Z,49.84
2023-01-19T13:00:26.222Z,50.81
2023-01-19T13:03:04.765Z,50.45
2023-01-19T13:05:33.102Z,50.55
2023-01-19T13:08:04.981Z,49.72
2023-01-19T13:10:55.937Z,49.48
2023-01-19T13:13:27.802Z,49.45
2023-01-19T13:15:56.877Z,48.65
2023-01-19T13:18:30.264Z,47.72
2023-01-19T13:21:07.443Z,47.75
2023-01-19T13:23:52.697Z,47.67
2023-01-19T13:26:22.449Z,47.37
2023-01-19T13:29:12.517Z,47.28
2023-01-19T13:31:42.846Z,46.68
2023-01-19T13:34:15.487Z,46.78
2023-01-19T13:36:46.563Z,47.11
2023-01-19T13:39:38.173Z,47.87
2023-01-19T13:42:24.622Z,48.49
2023-01-19T13:44:54.848Z,48.96
2023-01-19T13:47:25.447Z,49.21
2023-01-19T13:49:57.473Z,49.39
2023-01-19T13:52:31.515Z,49.44
2023-01-19T13:55:04.778Z,49.59
2023-01-19T13:57:41.656Z,49.56
2023-01-19T14:00:12.307Z,49.90
2023-01-19T14:02:58.980Z,50.34
2023-01-19T14:05:30.907Z,50.03
2023-01-19T14:08:18.320Z,50.38
2023-01-19T14:10:54.355Z,51.91
2023-01-19T14:13:25.424Z,51.82
2023-01-19T14:15:56.088Z,51.59
2023-01-19T14:18:30.253Z,51.16
2023-01-19T14:21:14.829Z,51.44
2023-01-19T14:23:44.922Z,51.68
2023-01-19T14:26:49.886Z,51.54
2023-01-19T14:29:32.729Z,50.73
2023-01-19T14:32:21.155Z,51.18
2023-01-19T14:34:51.305Z,51.52
2023-01-19T14:37:24.701Z,50.52
2023-01-19T14:39:55.331Z,50.67
2023-01-19T14:42:29.196Z,51.27
2023-01-19T14:44:59.148Z,51.21
2023-01-19T14:47:37.616Z,51.23
2023-01-19T14:50:26.127Z,51.07
2023-01-19T14:53:00.548Z,50.88
2023-01-19T14:55:45.119Z,51.11
2023-01-19T14:58:14.298Z,50.65
2023-01-19T15:00:43.021Z,50.71
2023-01-19T15:03:10.551Z,50.52
2023-01-19T15:05:44.364Z,50.77
2023-01-19T15:08:20.432Z,50.50
2023-01-19T15:10:47.476Z,50.30
2023-01-19T15:13:25.845Z,50.15
2023-01-19T15:15:53.616Z,50.18
2023-01-19T15:18:24.542Z,49.87
2023-01-19T15:20:52.357Z,49.79
2023-01-19T15:23:19.642Z,49.47
2023-01-19T15:25:46.885Z,49.43
2023-01-19T15:28:17.795Z,49.91
2023-01-19T15:30:45.221Z,50.79
2023-01-19T15:33:21.432Z,51.29
2023-01-19T15:35:49.268Z,51.42
2023-01-19T15:38:16.407Z,51.74
2023-01-19T15:40:43.933Z,51.88
2023-01-19T15:43:11.596Z,52.16
2023-01-19T15:45:39.631Z,51.91
2023-01-19T15:48:08.795Z,51.58
2023-01-19T15:50:39.075Z,51.84
2023-01-19T15:53:07.444Z,51.78
2023-01-19T15:55:34.725Z,52.50
2023-01-19T15:58:01.926Z,52.65
2023-01-19T16:00:30.510Z,52.70
2023-01-19T16:02:58.108Z,53.09
2023-01-19T16:05:33.979Z,53.25
2023-01-19T16:08:10.023Z,53.89
2023-01-19T16:10:37.063Z,54.23
2023-01-19T16:13:04.705Z,54.77
2023-01-19T16:15:34.355Z,55.24
2023-01-19T16:18:01.473Z,55.50
2023-01-19T16:20:28.632Z,55.97
2023-01-19T16:22:58.582Z,56.42
2023-01-19T16:25:33.214Z,56.31
2023-01-19T16:28:00.467Z,55.98
2023-01-19T16:30:27.519Z,56.14
2023-01-19T16:32:54.604Z,56.38
2023-01-19T16:35:21.834Z,56.18
2023-01-19T16:37:51.937Z,56.41
2023-01-19T16:40:20.500Z,56.34
2023-01-19T16:42:47.607Z,56.25
2023-01-19T16:45:14.921Z,56.14
2023-01-19T16:47:42.097Z,56.27
2023-01-19T16:50:12.118Z,55.93
2023-01-19T16:52:40.587Z,55.98
2023-01-19T16:55:09.644Z,55.95
2023-01-19T16:57:39.185Z,56.09
2023-01-19T17:00:09.561Z,55.98
2023-01-19T17:02:36.885Z,56.42
2023-01-19T17:05:04.771Z,56.05
2023-01-19T17:07:31.829Z,55.90
2023-01-19T17:09:59.024Z,55.64
2023-01-19T17:12:25.985Z,55.54
2023-01-19T17:14:53.132Z,55.50
2023-01-19T17:17:20.116Z,55.47
2023-01-19T17:19:47.199Z,55.60
2023-01-19T17:22:15.174Z,56.18
2023-01-19T17:24:42.570Z,56.31
2023-01-19T17:27:10.323Z,56.38
2023-01-19T17:29:37.354Z,56.35
2023-01-19T17:32:04.562Z,56.80
2023-01-19T17:34:31.720Z,57.03
2023-01-19T17:37:03.169Z,57.18
2023-01-19T17:39:30.642Z,57.20
2023-01-19T17:41:57.817Z,57.60
2023-01-19T17:44:25.224Z,57.94
2023-01-19T17:46:52.368Z,58.29
2023-01-19T17:49:19.612Z,58.44
2023-01-19T17:51:51.940Z,58.54
2023-01-19T17:54:19.325Z,58.84
2023-01-19T17:56:46.337Z,59.49
2023-01-19T17:59:13.517Z,59.69
2023-01-19T18:01:41.484Z,60.04
2023-01-19T18:04:09.647Z,60.08
2023-01-19T18:06:38.167Z,60.16
2023-01-19T18:09:07.639Z,59.83
2023-01-19T18:11:35.617Z,58.57
2023-01-19T18:14:03.028Z,57.86
2023-01-19T18:16:30.855Z,57.00
2023-01-19T18:18:58.037Z,56.51
2023-01-19T18:21:28.312Z,55.92
2023-01-19T18:24:01.463Z,55.98
2023-01-19T18:26:30.019Z,56.27
2023-01-19T18:28:58.314Z,56.36
2023-01-19T18:31:27.069Z,56.80
2023-01-19T18:33:54.488Z,56.86
2023-01-19T18:36:22.146Z,57.02
2023-01-19T18:38:49.769Z,56.79
2023-01-19T18:41:19.356Z,57.36
2023-01-19T18:43:47.088Z,57.87
2023-01-19T18:46:15.363Z,58.25
2023-01-19T18:48:42.440Z,58.36
2023-01-19T18:51:14.734Z,58.56
2023-01-19T18:53:43.831Z,58.39
2023-01-19T18:56:15.564Z,58.54
2023-01-19T18:58:43.707Z,58.65
2023-01-19T19:01:37.132Z,58.54
2023-01-19T19:04:04.518Z,58.30
2023-01-19T19:06:31.481Z,58.32
2023-01-19T19:08:59.676Z,58.17
2023-01-19T19:11:27.379Z,58.30
2023-01-19T19:13:56.940Z,58.22
2023-01-19T19:16:24.162Z,58.46
2023-01-19T19:18:51.600Z,58.61
2023-01-19T19:21:20.754Z,58.47
2023-01-19T19:23:52.648Z,58.67
2023-01-19T19:26:20.419Z,58.93
2023-01-19T19:28:48.807Z,59.22
2023-01-19T19:31:20.816Z,59.40
2023-01-19T19:33:48.997Z,59.50
2023-01-19T19:36:16.456Z,59.53
2023-01-19T19:38:47.569Z,59.87
2023-01-19T19:41:23.170Z,60.06
2023-01-19T19:43:50.645Z,60.16
2023-01-19T19:46:20.259Z,60.23
2023-01-19T19:48:48.331Z,60.41
2023-01-19T19:51:22.874Z,60.10
2023-01-19T19:53:51.992Z,60.23
2023-01-19T19:56:23.662Z,60.58
2023-01-19T19:58:52.380Z,60.35
2023-01-19T20:01:24.116Z,60.42
2023-01-19T20:03:53.888Z,60.26
2023-01-19T20:06:24.103Z,60.19
2023-01-19T20:08:53.909Z,60.03
2023-01-19T20:11:24.378Z,60.10
2023-01-19T20:13:51.950Z,60.19
2023-01-19T20:16:22.246Z,60.24
2023-01-19T20:18:51.774Z,59.84
2023-01-19T20:21:24.922Z,59.60
2023-01-19T20:24:02.207Z,59.56
2023-01-19T20:26:35.525Z,59.29
2023-01-19T20:29:06.897Z,58.84
2023-01-19T20:31:46.546Z,58.54
2023-01-19T20:34:18.042Z,58.66
2023-01-19T20:36:49.749Z,58.86
2023-01-19T20:39:18.917Z,59.01
2023-01-19T20:41:45.947Z,58.79
2023-01-19T20:44:16.302Z,58.83
2023-01-19T20:46:43.533Z,59.21
2023-01-19T20:49:10.924Z,59.28
2023-01-19T20:51:41.833Z,59.50
2023-01-19T20:54:11.045Z,59.97
2023-01-19T20:56:39.125Z,60.13
2023-01-19T20:59:07.235Z,60.08
2023-01-19T21:01:34.855Z,60.60
2023-01-19T21:04:02.100Z,60.65
2023-01-19T21:06:29.402Z,60.90
2023-01-19T21:08:57.712Z,61.41
2023-01-19T21:11:25.704Z,61.58
2023-01-19T21:13:56.301Z,61.73
2023-01-19T21:16:26.217Z,62.33
2023-01-19T21:18:53.518Z,62.46
2023-01-19T21:21:30.543Z,62.46
2023-01-19T21:24:01.455Z,62.53
2023-01-19T21:26:33.576Z,62.75
2023-01-19T21:29:05.416Z,62.63
2023-01-19T21:31:32.552Z,62.93
2023-01-19T21:34:22.735Z,63.36
2023-01-19T21:36:49.873Z,63.56
2023-01-19T21:39:21.773Z,63.69
2023-01-19T21:41:48.998Z,63.92
2023-01-19T21:44:22.131Z,64.04
2023-01-19T21:46:52.160Z,64.47
2023-01-19T21:49:22.915Z,64.35
2023-01-19T21:51:53.033Z,64.22
2023-01-19T21:54:22.844Z,63.83
2023-01-19T21:56:49.931Z,63.97
2023-01-19T21:59:18.504Z,63.90
2023-01-19T22:01:47.232Z,64.26
2023-01-19T22:04:17.168Z,64.19
2023-01-19T22:06:44.410Z,63.95
2023-01-19T22:09:11.408Z,64.16
2023-01-19T22:11:47.132Z,64.02
2023-01-19T22:14:14.149Z,64.25
2023-01-19T22:16:41.251Z,64.25
2023-01-19T22:19:12.825Z,64.27
2023-01-19T22:21:40.247Z,64.33
2023-01-19T22:24:07.801Z,64.34
2023-01-19T22:26:37.067Z,64.65
2023-01-19T22:29:05.966Z,64.64
2023-01-19T22:31:33.078Z,65.23
2023-01-19T22:34:00.171Z,65.18
2023-01-19T22:36:28.841Z,65.51
2023-01-19T22:39:01.391Z,65.57
2023-01-19T22:41:32.149Z,65.54
2023-01-19T22:44:02.490Z,65.83
2023-01-19T22:46:32.331Z,65.88
2023-01-19T22:48:59.948Z,65.94
2023-01-19T22:51:29.635Z,66.11
2023-01-19T22:53:57.094Z,66.04
2023-01-19T22:56:26.733Z,66.36
2023-01-19T22:58:54.524Z,66.43
2023-01-19T23:01:33.793Z,66.50
2023-01-19T23:04:02.440Z,66.86
2023-01-19T23:06:31.891Z,66.81
2023-01-19T23:09:01.145Z,67.33
2023-01-19T23:11:34.277Z,66.79
2023-01-19T23:14:04.152Z,66.73
2023-01-19T23:16:31.206Z,66.91
2023-01-19T23:18:58.743Z,66.64
2023-01-19T23:21:28.740Z,66.83
2023-01-19T23:23:57.857Z,67.01
2023-01-19T23:26:25.635Z,66.75
2023-01-19T23:28:59.139Z,66.80
2023-01-19T23:31:29.059Z,66.83
2023-01-19T23:33:58.876Z,66.27
2023-01-19T23:36:28.810Z,66.21
2023-01-19T23:38:57.822Z,66.37
2023-01-19T23:41:26.594Z,65.99
2023-01-19T23:43:53.706Z,65.73
2023-01-19T23:46:21.803Z,65.28
2023-01-19T23:48:49.328Z,65.20
2023-01-19T23:51:23.189Z,65.11
2023-01-19T23:53:51.217Z,64.50
2023-01-19T23:56:24.679Z,63.44
2023-01-19T23:59:02.834Z,63.92
